Time;durP1;ratioP1;P1;durP2;ratioP2;P2;SDS_P1;SDS_P2;PMS_P1;PMS_P2;Temp;Humidity;BMP_temperature;BMP_pressure;BME280_temperature;BME280_humidity;BME280_pressure;Samples;Min_cycle;Max_cycle;Signal;HPM_P1;HPM_P2
2021/12/17 06:04:43;;;;;;;9.23;6.12;;;;;;;3.82;87.08;101516.50;6641477;26;20055;-90
2021/12/17 06:30:45;;;;;;;16.73;7.43;;;;;;;3.27;87.73;101539.34;6637699;26;20071;-89
2021/12/17 06:33:52;;;;;;;10.23;6.68;;;;;;;3.18;88.55;101537.59;6637093;26;34181;-88
2021/12/17 06:36:55;;;;;;;13.90;7.40;;;;;;;3.18;88.55;101543.69;6638572;26;34387;-89
2021/12/17 06:39:58;;;;;;;12.25;7.53;;;;;;;3.16;88.71;101570.81;6640730;26;34434;-90
2021/12/17 06:43:01;;;;;;;11.82;7.78;;;;;;;3.09;89.77;101565.56;6636602;26;33885;-89
2021/12/17 06:59:46;;;;;;;12.30;7.78;;;;;;;2.88;91.37;101563.81;6636256;26;34239;-90
2021/12/17 07:23:17;;;;;;;10.90;6.97;;;;;;;2.95;90.80;101607.50;6635470;26;33888;-89
2021/12/17 07:43:54;;;;;;;11.38;7.45;;;;;;;2.97;90.81;101652.06;6637017;26;20063;-91
2021/12/17 07:46:58;;;;;;;11.82;6.95;;;;;;;3.01;90.36;101658.19;6631212;26;33951;-89
2021/12/17 07:50:03;;;;;;;10.90;7.28;;;;;;;3.07;90.02;101655.59;6640333;26;33910;-91
2021/12/17 07:56:45;;;;;;;11.80;6.85;;;;;;;3.09;89.83;101678.31;6638407;26;20294;-89
2021/12/17 07:59:49;;;;;;;12.30;6.68;;;;;;;3.16;89.42;101675.72;6637123;26;34563;-89
2021/12/17 08:02:52;;;;;;;11.85;6.68;;;;;;;3.35;87.70;101659.12;6636158;26;35264;-89
2021/12/17 08:05:59;;;;;;;9.38;6.35;;;;;;;3.43;86.88;101639.87;6635187;26;33626;-88
2021/12/17 08:09:03;;;;;;;12.57;6.07;;;;;;;3.48;86.46;101649.50;6635505;26;35188;-90
2021/12/17 08:12:09;;;;;;;9.40;5.90;;;;;;;3.46;86.41;101646.00;6634452;26;34439;-89
2021/12/17 08:15:13;;;;;;;9.90;6.20;;;;;;;3.50;86.15;101649.50;6636431;26;33936;-89
2021/12/17 08:25:13;;;;;;;9.67;5.87;;;;;;;3.75;84.20;101629.38;6636386;26;33777;-90
2021/12/17 08:28:18;;;;;;;8.93;5.82;;;;;;;3.76;84.55;101648.62;6636881;26;33286;-90
2021/12/17 08:31:21;;;;;;;8.88;5.45;;;;;;;3.82;83.79;101658.25;6637076;26;32956;-89
2021/12/17 08:34:25;;;;;;;12.00;6.20;;;;;;;3.81;83.99;101654.75;6638217;26;35326;-91
2021/12/17 08:37:32;;;;;;;8.82;5.82;;;;;;;3.88;83.71;101658.25;6636836;26;35316;-92
2021/12/17 08:40:36;;;;;;;12.98;6.90;;;;;;;3.85;83.99;101673.97;6636419;26;33846;-89
2021/12/17 08:43:40;;;;;;;11.05;5.62;;;;;;;3.88;83.95;101666.12;6634616;26;33878;-89
2021/12/17 08:46:43;;;;;;;10.95;5.78;;;;;;;3.96;83.74;101659.09;6636716;26;34492;-91
2021/12/17 08:49:49;;;;;;;9.50;5.70;;;;;;;3.91;83.84;101672.25;6634711;26;33999;-89
2021/12/17 08:52:52;;;;;;;11.35;6.07;;;;;;;3.98;83.30;101677.47;6634052;26;34341;-89
2021/12/17 08:55:55;;;;;;;12.50;6.45;;;;;;;4.00;83.26;101681.84;6634382;26;33979;-89
2021/12/17 08:59:01;;;;;;;10.30;5.90;;;;;;;3.98;83.39;101659.09;6637631;26;34197;-90
2021/12/17 09:02:05;;;;;;;12.10;5.80;;;;;;;4.04;83.02;101670.44;6636534;26;34128;-90
2021/12/17 09:05:11;;;;;;;9.93;5.60;;;;;;;4.09;82.90;101673.09;6640839;26;33987;-90
2021/12/17 09:08:16;;;;;;;13.73;5.90;;;;;;;4.09;82.70;101665.22;6641149;26;32192;-91
2021/12/17 09:11:19;;;;;;;6.93;5.00;;;;;;;4.11;82.20;101654.69;6639995;26;34153;-90
2021/12/17 09:14:22;;;;;;;7.55;4.72;;;;;;;5.39;80.69;101628.66;6637449;26;34233;-91
2021/12/17 09:17:26;;;;;;;11.25;5.87;;;;;;;5.17;76.32;101641.97;6638640;26;34072;-89
2021/12/17 09:20:29;;;;;;;10.27;5.45;;;;;;;4.77;78.45;101644.84;6636368;26;34186;-89
2021/12/17 09:23:32;;;;;;;8.48;5.18;;;;;;;4.58;79.28;101645.78;6635025;26;34746;-90
2021/12/17 09:26:35;;;;;;;10.57;6.20;;;;;;;4.70;78.64;101641.34;6634545;26;33908;-91
2021/12/17 09:29:38;;;;;;;12.57;5.85;;;;;;;4.93;78.29;101648.25;6637549;26;35185;-91
2021/12/17 09:32:42;;;;;;;11.77;5.62;;;;;;;7.26;69.19;101645.00;6638821;26;34377;-91
2021/12/17 09:35:49;;;;;;;8.93;5.45;;;;;;;10.63;56.25;101638.44;6642207;26;34000;-90
2021/12/17 09:38:52;;;;;;;8.52;5.30;;;;;;;12.94;48.90;101636.81;6645069;26;35155;-90
2021/12/17 09:41:56;;;;;;;10.60;5.20;;;;;;;16.20;39.93;101633.53;6636748;26;34120;-90
2021/12/17 09:44:59;;;;;;;8.43;5.05;;;;;;;14.16;43.59;101632.66;6634038;26;34776;-89
2021/12/17 09:48:02;;;;;;;7.25;4.90;;;;;;;14.16;43.21;101638.00;6634699;26;33738;-89
2021/12/17 09:51:07;;;;;;;6.00;4.40;;;;;;;15.26;40.53;101626.69;6633408;26;35046;-89
2021/12/17 09:54:11;;;;;;;7.25;4.75;;;;;;;18.30;35.13;101629.59;6635997;26;34257;-89
2021/12/17 09:57:14;;;;;;;6.75;4.87;;;;;;;15.78;38.61;101641.00;6637544;26;34011;-88
2021/12/17 10:00:20;;;;;;;10.10;4.47;;;;;;;15.39;39.49;101650.13;6638378;26;33434;-88
2021/12/17 10:07:23;;;;;;;8.52;4.20;;;;;;;13.70;43.15;101640.88;6632569;26;20063;-90
2021/12/17 10:56:16;;;;;;;7.35;4.22;;;;;;;7.12;64.62;101632.00;6639488;26;34012;-89
2021/12/17 10:59:20;;;;;;;7.28;4.25;;;;;;;7.09;65.64;101637.34;6636115;26;34387;-90
2021/12/17 11:02:33;;;;;;;10.13;4.50;;;;;;;7.51;64.53;101639.31;6637972;26;34075;-91
2021/12/17 11:05:35;;;;;;;8.73;4.03;;;;;;;7.44;64.42;101637.69;6639767;26;33929;-90
2021/12/17 11:08:45;;;;;;;7.05;4.43;;;;;;;7.42;64.64;101645.62;6637934;26;34397;-89
2021/12/17 11:11:54;;;;;;;11.43;4.65;;;;;;;6.98;65.50;101627.81;6635357;26;34383;-85
2021/12/17 11:15:19;;;;;;;9.02;4.62;;;;;;;7.28;65.12;101632.63;6635959;26;34302;-86
2021/12/17 11:18:24;;;;;;;7.80;4.60;;;;;;;7.30;65.25;101616.78;6636517;26;33948;-86
2021/12/17 11:21:28;;;;;;;11.98;5.00;;;;;;;7.57;64.92;101619.84;6641830;26;34289;-86
2021/12/17 11:24:33;;;;;;;5.75;4.40;;;;;;;7.47;65.09;101633.22;6639405;26;35390;-86
2021/12/17 11:27:36;;;;;;;9.82;4.78;;;;;;;6.99;65.94;101626.91;6641314;26;34241;-87
2021/12/17 11:30:42;;;;;;;9.85;5.25;;;;;;;6.67;67.98;101627.34;6634132;26;33918;-86
2021/12/17 11:33:45;;;;;;;9.00;4.40;;;;;;;6.76;67.92;101632.50;6634669;26;33919;-90
2021/12/17 11:36:48;;;;;;;7.25;4.78;;;;;;;7.12;66.23;101621.44;6633861;26;34490;-91
2021/12/17 11:39:56;;;;;;;12.18;4.87;;;;;;;6.98;66.62;101617.25;6634249;26;33931;-91
2021/12/17 11:43:14;;;;;;;7.30;4.43;;;;;;;6.98;66.93;101616.37;6634586;26;35143;-87
2021/12/17 11:46:25;;;;;;;6.75;4.30;;;;;;;6.99;66.20;101612.84;6633711;26;34690;-86
2021/12/17 11:49:34;;;;;;;8.00;4.53;;;;;;;6.64;67.33;101614.22;6635408;26;33740;-86
2021/12/17 11:52:49;;;;;;;16.17;4.65;;;;;;;6.49;67.91;101610.00;6635250;26;34156;-87
2021/12/17 11:56:00;;;;;;;10.65;4.47;;;;;;;6.44;67.90;101613.56;6634269;26;35149;-86
2021/12/17 11:59:03;;;;;;;10.55;4.37;;;;;;;6.46;68.29;101606.53;6635179;26;35225;-86
2021/12/17 12:02:15;;;;;;;11.02;4.78;;;;;;;7.28;67.41;101612.41;6635198;26;34351;-86
2021/12/17 15:29:20;;;;;;;10.10;4.60;;;;;;;3.89;79.58;101568.09;6612940;26;20045;-88
2021/12/17 15:32:23;;;;;;;;;;;;;;;3.90;79.52;101575.09;6608777;26;33666;-89
2021/12/17 16:02:09;;;;;;;8.50;5.07;;;;;;;3.72;81.06;101592.63;6609675;26;20036;-89
